Time;durP1;ratioP1;P1;durP2;ratioP2;P2;SDS_P1;SDS_P2;PMS_P1;PMS_P2;Temp;Humidity;BMP_temperature;BMP_pressure;BME280_temperature;BME280_humidity;BME280_pressure;Samples;Min_cycle;Max_cycle;Signal;HPM_P1;HPM_P2
2023/04/15 00:00:50;;;;;;;5.63;5.03;;;9.10;99.90;;;;;;5033383;28;20443;-55
2023/04/15 00:03:16;;;;;;;5.37;4.87;;;9.00;99.90;;;;;;5039344;28;20681;-56
2023/04/15 00:05:42;;;;;;;5.90;5.40;;;9.00;99.90;;;;;;5034089;28;20524;-55
2023/04/15 00:08:07;;;;;;;6.50;5.20;;;8.90;99.90;;;;;;5031330;28;20270;-56
2023/04/15 00:10:33;;;;;;;5.13;4.40;;;9.00;99.90;;;;;;5035070;28;20204;-55
2023/04/15 00:12:59;;;;;;;6.90;5.97;;;9.10;99.90;;;;;;5034840;28;20184;-57
2023/04/15 00:15:25;;;;;;;6.10;5.33;;;9.10;99.90;;;;;;5033829;28;20777;-54
2023/04/15 00:17:51;;;;;;;3.57;3.27;;;9.10;99.90;;;;;;5035394;28;20514;-57
2023/04/15 00:20:17;;;;;;;7.10;4.10;;;9.00;99.90;;;;;;5033390;28;20794;-58
2023/04/15 00:22:42;;;;;;;4.60;4.27;;;9.00;99.90;;;;;;5033843;28;20184;-55
2023/04/15 00:25:08;;;;;;;3.40;3.10;;;9.00;99.90;;;;;;5043251;28;20278;-57
2023/04/15 00:27:34;;;;;;;4.50;3.93;;;8.50;99.90;;;;;;5048641;28;20204;-55
2023/04/15 00:29:59;;;;;;;3.73;3.43;;;9.00;99.90;;;;;;5047010;28;20272;-56
2023/04/15 00:32:25;;;;;;;4.50;4.10;;;8.90;99.90;;;;;;5041216;28;20196;-56
2023/04/15 00:34:51;;;;;;;4.20;3.80;;;9.00;99.90;;;;;;5034416;28;20195;-54
2023/04/15 00:37:17;;;;;;;3.27;2.97;;;9.00;99.90;;;;;;5034655;28;20184;-55
2023/04/15 00:39:42;;;;;;;3.97;3.40;;;9.00;99.90;;;;;;5033260;28;20475;-55
2023/04/15 00:42:09;;;;;;;3.30;3.00;;;9.10;99.90;;;;;;5032746;28;20198;-55
2023/04/15 00:44:35;;;;;;;4.00;3.13;;;9.20;99.90;;;;;;5032707;28;20521;-55
2023/04/15 00:47:02;;;;;;;4.00;3.70;;;9.10;99.90;;;;;;5032124;28;20953;-55
2023/04/15 00:49:28;;;;;;;5.07;3.87;;;9.10;99.90;;;;;;5035257;28;20219;-55
2023/04/15 00:51:54;;;;;;;3.90;3.60;;;9.20;99.90;;;;;;5034248;28;20447;-55
2023/04/15 00:54:20;;;;;;;3.83;3.43;;;9.20;99.90;;;;;;5027249;28;20579;-56
2023/04/15 00:56:46;;;;;;;3.63;3.33;;;9.20;99.90;;;;;;5034926;28;20975;-56
2023/04/15 00:59:13;;;;;;;4.20;3.80;;;9.10;99.90;;;;;;5034761;28;20443;-55
2023/04/15 01:01:39;;;;;;;4.10;3.47;;;9.10;99.90;;;;;;5033017;28;20639;-55
2023/04/15 01:04:05;;;;;;;4.30;3.90;;;9.10;99.90;;;;;;5037620;28;20438;-56
2023/04/15 01:06:31;;;;;;;4.10;3.70;;;9.10;99.90;;;;;;5031342;28;20537;-56
2023/04/15 01:08:58;;;;;;;4.20;3.80;;;9.20;99.90;;;;;;5036052;28;20984;-56
2023/04/15 01:11:24;;;;;;;3.97;3.57;;;9.20;99.90;;;;;;5033984;28;20188;-56
2023/04/15 01:13:51;;;;;;;3.43;3.13;;;9.20;99.90;;;;;;5032930;28;20455;-57
2023/04/15 01:16:18;;;;;;;4.00;3.67;;;9.20;99.90;;;;;;5032847;28;21023;-55
2023/04/15 01:18:44;;;;;;;3.77;3.47;;;9.20;99.90;;;;;;5032706;28;20451;-56
2023/04/15 01:21:10;;;;;;;3.20;2.90;;;9.30;99.90;;;;;;5032441;28;21089;-57
2023/04/15 01:23:37;;;;;;;3.70;3.40;;;9.20;99.90;;;;;;5031935;28;20504;-56
2023/04/15 01:26:04;;;;;;;4.10;3.80;;;9.20;99.90;;;;;;5033930;28;20779;-56
2023/04/15 01:28:33;;;;;;;4.43;4.03;;;9.30;99.90;;;;;;5031866;28;20818;-55
2023/04/15 01:31:10;;;;;;;6.03;4.10;;;9.30;99.90;;;;;;5035568;28;20521;-57
2023/04/15 01:33:37;;;;;;;3.93;3.63;;;9.20;99.90;;;;;;5046926;28;20454;-56
2023/04/15 01:36:04;;;;;;;3.83;3.43;;;9.20;99.90;;;;;;5045344;28;20568;-56
2023/04/15 01:38:30;;;;;;;3.90;3.60;;;9.30;99.90;;;;;;5038343;28;20999;-56
2023/04/15 01:40:56;;;;;;;3.90;3.57;;;9.20;99.90;;;;;;5048069;28;20478;-56
2023/04/15 01:43:22;;;;;;;3.90;3.53;;;9.20;99.90;;;;;;5035303;28;20805;-55
2023/04/15 01:45:47;;;;;;;4.60;4.20;;;9.30;99.90;;;;;;5046275;28;20500;-56
2023/04/15 01:48:13;;;;;;;4.37;3.97;;;9.10;99.90;;;;;;5039710;28;20287;-57
2023/04/15 01:50:39;;;;;;;4.57;4.20;;;9.10;99.90;;;;;;5039373;28;20681;-55
2023/04/15 01:53:04;;;;;;;4.47;4.07;;;9.20;99.90;;;;;;5040049;28;20539;-58
2023/04/15 01:55:30;;;;;;;4.13;3.83;;;9.20;99.90;;;;;;5031045;28;20229;-57
2023/04/15 01:57:56;;;;;;;5.10;4.60;;;9.30;99.90;;;;;;5032899;28;20673;-56
2023/04/15 02:00:22;;;;;;;4.57;4.17;;;9.40;99.90;;;;;;5032809;28;20451;-57
2023/04/15 02:02:48;;;;;;;5.10;4.70;;;9.70;99.90;;;;;;5033324;28;20189;-55
2023/04/15 02:05:14;;;;;;;4.80;4.40;;;9.40;99.90;;;;;;5031467;28;20448;-56
2023/04/15 02:07:44;;;;;;;5.40;4.90;;;9.50;99.90;;;;;;5033564;28;20483;-55
2023/04/15 02:10:12;;;;;;;5.47;5.03;;;9.20;99.90;;;;;;5031688;28;22239;-56
2023/04/15 02:12:37;;;;;;;4.30;3.90;;;9.20;99.90;;;;;;5033214;28;21274;-56
2023/04/15 02:15:04;;;;;;;4.77;4.37;;;9.20;99.90;;;;;;5035995;28;20455;-56
2023/04/15 02:17:30;;;;;;;5.30;4.80;;;9.20;99.90;;;;;;5036351;28;20483;-56
2023/04/15 02:19:56;;;;;;;4.47;4.07;;;9.20;99.90;;;;;;5033213;28;20449;-55
2023/04/15 02:22:21;;;;;;;4.83;4.43;;;9.20;99.90;;;;;;5037702;28;20451;-57
2023/04/15 02:24:47;;;;;;;4.20;3.90;;;9.30;99.90;;;;;;5045387;28;20238;-55
2023/04/15 02:27:17;;;;;;;4.80;4.40;;;9.20;99.90;;;;;;5046822;28;20620;-57
2023/04/15 02:29:44;;;;;;;5.50;4.53;;;9.10;99.90;;;;;;5046259;28;20190;-56
2023/04/15 02:32:10;;;;;;;5.07;4.63;;;9.20;99.90;;;;;;5041033;28;20522;-58
2023/04/15 02:34:40;;;;;;;4.70;4.10;;;9.30;99.90;;;;;;5049411;28;20994;-56
2023/04/15 02:37:06;;;;;;;4.23;3.90;;;9.30;99.90;;;;;;5052487;28;20499;-56
2023/04/15 02:39:32;;;;;;;4.40;3.97;;;9.20;99.90;;;;;;5046272;28;20952;-57
2023/04/15 02:41:59;;;;;;;6.80;4.67;;;9.20;99.90;;;;;;5035611;28;20451;-57
2023/04/15 02:44:26;;;;;;;4.57;4.17;;;9.40;99.90;;;;;;5036189;28;20517;-57
2023/04/15 02:46:53;;;;;;;4.87;4.47;;;9.20;99.90;;;;;;5043872;28;20443;-57
2023/04/15 02:49:19;;;;;;;5.03;4.50;;;9.30;99.90;;;;;;5036103;28;20463;-56
2023/04/15 02:51:48;;;;;;;4.50;4.10;;;9.20;99.90;;;;;;5035635;28;20481;-56
2023/04/15 02:54:19;;;;;;;4.90;4.40;;;9.20;99.90;;;;;;5035637;28;20473;-56
2023/04/15 02:56:44;;;;;;;5.10;4.60;;;9.20;99.90;;;;;;5038545;28;20479;-56
2023/04/15 02:59:11;;;;;;;7.80;4.80;;;9.30;99.90;;;;;;5036370;28;20532;-57
2023/04/15 03:01:37;;;;;;;5.43;4.93;;;9.20;99.90;;;;;;5034792;28;20202;-55
2023/04/15 03:04:03;;;;;;;5.80;5.30;;;9.20;99.90;;;;;;5034574;28;20451;-55
2023/04/15 03:06:28;;;;;;;6.07;4.93;;;9.20;99.90;;;;;;5036789;28;20189;-55
2023/04/15 03:08:54;;;;;;;5.40;4.90;;;9.30;99.90;;;;;;5036936;28;20293;-58
2023/04/15 03:11:20;;;;;;;5.43;4.93;;;9.20;99.90;;;;;;5034422;28;20915;-55
2023/04/15 03:13:46;;;;;;;5.23;4.70;;;9.20;99.90;;;;;;5035928;28;20593;-56
2023/04/15 03:16:11;;;;;;;6.80;5.37;;;9.20;99.90;;;;;;5035097;28;20444;-56
2023/04/15 03:18:37;;;;;;;4.40;4.00;;;9.10;99.90;;;;;;5037416;28;20201;-57
2023/04/15 03:21:03;;;;;;;5.00;4.50;;;9.20;99.90;;;;;;5032071;28;20208;-56
2023/04/15 03:23:30;;;;;;;4.80;4.40;;;9.10;99.90;;;;;;5047610;28;20566;-58
2023/04/15 03:25:56;;;;;;;4.70;4.30;;;9.20;99.90;;;;;;5047788;28;20473;-54
2023/04/15 03:28:22;;;;;;;5.63;5.13;;;9.20;99.90;;;;;;5051928;28;20984;-55
2023/04/15 03:30:48;;;;;;;6.57;5.50;;;9.30;99.90;;;;;;5047417;28;20475;-56
2023/04/15 03:33:14;;;;;;;5.73;5.23;;;9.30;99.90;;;;;;5049648;28;20463;-56
2023/04/15 03:35:40;;;;;;;5.07;4.67;;;9.40;99.90;;;;;;5047989;28;20215;-57
2023/04/15 03:38:05;;;;;;;5.13;4.43;;;9.30;99.90;;;;;;5051963;28;20184;-57
2023/04/15 03:40:31;;;;;;;4.80;4.40;;;9.20;99.90;;;;;;5050310;28;20446;-57
2023/04/15 03:42:57;;;;;;;5.27;4.47;;;9.20;99.90;;;;;;5048552;28;20451;-58
2023/04/15 03:45:22;;;;;;;6.00;5.40;;;9.20;99.90;;;;;;5050535;28;20504;-56
2023/04/15 03:47:48;;;;;;;5.87;5.37;;;9.10;99.90;;;;;;5048530;28;20208;-55
2023/04/15 03:50:14;;;;;;;5.60;5.10;;;9.20;99.90;;;;;;5049658;28;20184;-56
2023/04/15 03:52:40;;;;;;;5.80;5.20;;;9.30;99.90;;;;;;5037414;28;20489;-54
2023/04/15 03:55:05;;;;;;;6.00;5.50;;;9.30;99.90;;;;;;5033964;28;20227;-58
2023/04/15 03:57:32;;;;;;;5.90;5.40;;;9.30;99.90;;;;;;5033993;28;20189;-57
2023/04/15 03:59:57;;;;;;;6.70;6.00;;;9.30;99.90;;;;;;5041506;28;20496;-58
2023/04/15 04:02:23;;;;;;;7.07;6.37;;;9.20;99.90;;;;;;5041403;28;20775;-56
2023/04/15 04:04:48;;;;;;;6.10;5.50;;;9.20;99.90;;;;;;5040157;28;20201;-55
2023/04/15 04:07:15;;;;;;;6.53;5.97;;;9.20;99.90;;;;;;5036589;28;20654;-56
2023/04/15 04:09:41;;;;;;;5.07;4.57;;;9.20;99.90;;;;;;5036156;28;20192;-58
2023/04/15 04:12:07;;;;;;;5.60;5.10;;;9.10;99.90;;;;;;5041328;28;20462;-56
2023/04/15 04:14:33;;;;;;;6.00;5.40;;;9.10;99.90;;;;;;5049695;28;20184;-56
2023/04/15 04:16:59;;;;;;;5.93;5.10;;;9.10;99.90;;;;;;5049087;28;20493;-56
2023/04/15 04:19:25;;;;;;;6.00;5.50;;;9.30;99.90;;;;;;5049096;28;20208;-56
2023/04/15 04:21:51;;;;;;;6.63;6.03;;;9.40;99.90;;;;;;5035846;28;22242;-57
2023/04/15 04:24:17;;;;;;;6.50;5.90;;;9.40;99.90;;;;;;5034353;28;20535;-56
2023/04/15 04:26:43;;;;;;;7.07;6.47;;;9.30;99.90;;;;;;5035022;28;20577;-55
2023/04/15 04:29:08;;;;;;;6.50;5.90;;;9.30;99.90;;;;;;5035459;28;20475;-55
2023/04/15 04:31:34;;;;;;;6.93;6.33;;;9.30;99.90;;;;;;5043055;28;20189;-57
2023/04/15 04:34:00;;;;;;;6.93;6.30;;;9.30;99.90;;;;;;5051739;28;20246;-56
2023/04/15 04:36:25;;;;;;;7.30;6.23;;;9.20;99.90;;;;;;5050498;28;20204;-56
2023/04/15 04:38:51;;;;;;;9.73;8.73;;;9.20;99.90;;;;;;5048555;28;20541;-56
2023/04/15 04:41:17;;;;;;;8.30;7.50;;;9.30;99.90;;;;;;5049228;28;20189;-56
2023/04/15 04:43:42;;;;;;;7.20;6.50;;;9.30;99.90;;;;;;5047203;28;20641;-56
2023/04/15 04:46:09;;;;;;;7.60;6.80;;;9.30;99.90;;;;;;5047661;28;20451;-55
2023/04/15 04:48:34;;;;;;;6.40;5.80;;;9.30;99.90;;;;;;5048048;28;20216;-56
2023/04/15 04:51:00;;;;;;;6.83;6.13;;;9.30;99.90;;;;;;5046962;28;20454;-56
2023/04/15 04:53:26;;;;;;;7.53;6.70;;;9.40;99.90;;;;;;5050579;28;20515;-56
2023/04/15 04:55:52;;;;;;;7.60;6.80;;;9.40;99.90;;;;;;5046495;28;20479;-56
2023/04/15 04:58:18;;;;;;;6.27;5.67;;;9.50;99.90;;;;;;5044840;28;20537;-56
2023/04/15 05:00:43;;;;;;;8.90;8.00;;;9.40;99.90;;;;;;5048596;28;20197;-55
2023/04/15 05:03:09;;;;;;;7.80;7.00;;;9.30;99.90;;;;;;5048528;28;20196;-56
2023/04/15 05:05:38;;;;;;;8.20;7.10;;;9.40;99.90;;;;;;5041794;28;20220;-56
2023/04/15 05:08:04;;;;;;;6.40;5.90;;;9.40;99.90;;;;;;5046000;28;20219;-56
2023/04/15 05:10:30;;;;;;;7.10;6.40;;;9.60;99.90;;;;;;5046881;28;20924;-56
2023/04/15 05:12:56;;;;;;;6.53;5.83;;;9.60;99.90;;;;;;5047517;28;20443;-58
2023/04/15 05:15:21;;;;;;;7.23;6.53;;;9.70;99.90;;;;;;5045034;28;20223;-57
2023/04/15 05:17:47;;;;;;;7.10;6.40;;;9.60;99.90;;;;;;5047308;28;20463;-57
2023/04/15 05:20:13;;;;;;;7.13;6.43;;;9.70;99.90;;;;;;5052166;28;20188;-56
2023/04/15 05:22:38;;;;;;;7.10;6.30;;;9.70;99.90;;;;;;5046269;28;20234;-58
2023/04/15 05:25:04;;;;;;;7.27;6.57;;;9.80;99.90;;;;;;5053643;28;20622;-56
2023/04/15 05:27:30;;;;;;;6.73;6.10;;;9.80;99.90;;;;;;5046411;28;20208;-56
2023/04/15 05:29:56;;;;;;;6.60;5.93;;;9.80;99.90;;;;;;5046826;28;20181;-58
2023/04/15 05:32:21;;;;;;;6.27;5.63;;;9.80;99.90;;;;;;5048050;28;20188;-56
2023/04/15 05:34:47;;;;;;;6.37;5.77;;;9.90;99.90;;;;;;5049190;28;20212;-58
2023/04/15 05:37:13;;;;;;;8.30;6.40;;;10.00;99.90;;;;;;5047281;28;20215;-57
2023/04/15 05:39:38;;;;;;;7.97;7.20;;;10.00;99.90;;;;;;5048306;28;20181;-57
2023/04/15 05:42:04;;;;;;;5.87;5.37;;;10.10;99.90;;;;;;5049571;28;20183;-56
2023/04/15 05:44:30;;;;;;;6.57;4.93;;;10.20;99.90;;;;;;5042945;28;20176;-56
2023/04/15 05:46:56;;;;;;;5.30;4.83;;;10.10;99.90;;;;;;5046583;28;20458;-56
2023/04/15 05:49:22;;;;;;;5.37;4.87;;;11.10;99.90;;;;;;5049629;28;20462;-57
2023/04/15 05:51:48;;;;;;;4.17;3.83;;;10.30;99.90;;;;;;5048176;28;20893;-57
2023/04/15 05:54:13;;;;;;;5.20;4.70;;;10.30;99.90;;;;;;5045936;28;20239;-57
2023/04/15 05:56:39;;;;;;;6.50;5.90;;;10.40;99.90;;;;;;5048949;28;20250;-56
2023/04/15 05:59:05;;;;;;;4.80;4.33;;;10.30;99.90;;;;;;5047735;28;20199;-58
2023/04/15 06:01:32;;;;;;;4.67;4.23;;;10.40;99.90;;;;;;5046158;28;20193;-57
2023/04/15 06:03:57;;;;;;;5.23;4.73;;;10.40;99.90;;;;;;5047916;28;20461;-56
2023/04/15 06:06:23;;;;;;;6.40;5.80;;;10.30;99.90;;;;;;5048247;28;20451;-57
2023/04/15 06:08:48;;;;;;;5.07;4.57;;;10.50;99.90;;;;;;5047352;28;20675;-56
2023/04/15 06:11:14;;;;;;;3.57;3.27;;;10.40;99.90;;;;;;5050966;28;20181;-58
2023/04/15 06:13:40;;;;;;;2.27;2.07;;;10.50;83.00;;;;;;5050815;28;20653;-56
2023/04/15 06:16:06;;;;;;;2.43;2.10;;;10.60;48.40;;;;;;5051083;28;20226;-56
2023/04/15 06:18:32;;;;;;;1.97;1.87;;;10.50;34.50;;;;;;5049187;28;20221;-57
2023/04/15 06:20:58;;;;;;;2.77;2.07;;;10.40;25.40;;;;;;5052171;28;21043;-57
2023/04/15 06:23:24;;;;;;;1.50;1.40;;;10.50;29.40;;;;;;5047628;28;20681;-57
2023/04/15 06:25:50;;;;;;;2.07;1.87;;;10.60;9.40;;;;;;5048561;28;20196;-57
2023/04/15 06:28:16;;;;;;;1.63;1.53;;;10.50;1.00;;;;;;5046527;28;20474;-57
2023/04/15 06:30:41;;;;;;;3.00;1.60;;;10.40;2.10;;;;;;5052139;28;20445;-56
2023/04/15 06:33:07;;;;;;;1.13;1.00;;;10.50;13.00;;;;;;5049113;28;20176;-56
2023/04/15 06:35:33;;;;;;;1.70;1.50;;;10.60;1.00;;;;;;5050371;28;20327;-56
2023/04/15 06:37:58;;;;;;;1.33;1.23;;;10.60;1.00;;;;;;5049705;28;20238;-57
2023/04/15 06:40:24;;;;;;;1.03;0.93;;;10.60;1.00;;;;;;5051504;28;20176;-56
2023/04/15 06:42:49;;;;;;;0.90;0.80;;;10.60;1.00;;;;;;5049733;28;20215;-57
2023/04/15 06:45:15;;;;;;;1.10;1.00;;;10.70;1.00;;;;;;5050964;28;20196;-57
2023/04/15 06:47:42;;;;;;;1.20;0.90;;;10.70;1.00;;;;;;5050947;28;20737;-56
2023/04/15 06:50:08;;;;;;;1.37;1.20;;;10.70;1.00;;;;;;5048559;28;20446;-57
2023/04/15 06:52:34;;;;;;;1.50;1.00;;;10.70;1.00;;;;;;5051145;28;20459;-58
2023/04/15 06:55:01;;;;;;;1.47;1.37;;;10.80;1.00;;;;;;5049763;28;20477;-56
2023/04/15 06:57:27;;;;;;;1.60;1.40;;;10.90;1.00;;;;;;5048340;28;20463;-57
2023/04/15 06:59:53;;;;;;;2.50;2.30;;;11.00;1.00;;;;;;5050626;28;20478;-56
2023/04/15 07:02:19;;;;;;;5.87;2.80;;;11.00;1.00;;;;;;5056189;28;20981;-57
2023/04/15 07:04:45;;;;;;;2.00;1.10;;;11.00;1.00;;;;;;5051506;28;20542;-55
2023/04/15 07:07:11;;;;;;;1.30;1.20;;;11.10;1.00;;;;;;5049978;28;20489;-56
2023/04/15 07:09:37;;;;;;;0.80;0.77;;;11.20;1.00;;;;;;5049827;28;20191;-56
2023/04/15 07:12:03;;;;;;;1.90;0.80;;;11.30;1.00;;;;;;5051026;28;20605;-56
2023/04/15 07:14:28;;;;;;;1.10;1.00;;;11.30;1.00;;;;;;5046229;28;20478;-54
2023/04/15 07:16:55;;;;;;;3.37;0.70;;;11.30;1.00;;;;;;5047368;28;20189;-55
2023/04/15 07:19:20;;;;;;;0.73;0.70;;;11.10;1.00;;;;;;5051166;28;20230;-56
2023/04/15 07:21:46;;;;;;;4.17;1.47;;;11.20;1.00;;;;;;5050687;28;20438;-54
2023/04/15 07:24:15;;;;;;;2.87;1.10;;;11.20;1.00;;;;;;5051720;28;20654;-58
2023/04/15 07:26:41;;;;;;;1.50;1.13;;;11.30;1.00;;;;;;5048618;28;20216;-55
2023/04/15 07:29:07;;;;;;;2.20;1.20;;;11.30;1.00;;;;;;5048640;28;20502;-58
2023/04/15 07:31:32;;;;;;;1.67;1.00;;;11.30;1.00;;;;;;5048445;28;20189;-54
2023/04/15 07:33:58;;;;;;;4.60;1.40;;;11.40;1.00;;;;;;5050022;28;20196;-57
2023/04/15 07:36:24;;;;;;;1.50;1.40;;;11.50;1.00;;;;;;5045719;28;20212;-55
2023/04/15 07:38:49;;;;;;;2.20;1.80;;;11.60;1.00;;;;;;5050094;28;20542;-55
2023/04/15 07:41:16;;;;;;;1.67;1.40;;;11.60;1.00;;;;;;5048883;28;20184;-54
2023/04/15 07:43:42;;;;;;;1.93;0.93;;;11.70;1.00;;;;;;5051043;28;20399;-55
2023/04/15 07:46:08;;;;;;;1.20;1.10;;;11.80;1.00;;;;;;5050730;28;20450;-55
2023/04/15 07:48:33;;;;;;;0.80;0.80;;;11.80;1.00;;;;;;5049647;28;20463;-55
2023/04/15 07:50:59;;;;;;;2.63;0.80;;;11.80;1.00;;;;;;5050714;28;20218;-55
2023/04/15 07:53:25;;;;;;;1.67;0.90;;;11.90;1.00;;;;;;5051233;28;20177;-55
2023/04/15 07:55:51;;;;;;;1.10;0.80;;;11.90;1.00;;;;;;5049889;28;20833;-54
2023/04/15 07:58:16;;;;;;;0.63;0.63;;;12.10;1.00;;;;;;5051040;28;20465;-56
2023/04/15 08:00:42;;;;;;;0.80;0.80;;;12.10;1.00;;;;;;5051511;28;20193;-55
2023/04/15 08:03:07;;;;;;;1.13;1.03;;;12.10;1.00;;;;;;5051760;28;20180;-55
2023/04/15 08:05:33;;;;;;;1.20;0.80;;;12.10;1.00;;;;;;5051414;28;20184;-55
2023/04/15 08:07:59;;;;;;;0.63;0.63;;;12.30;1.00;;;;;;5050231;28;20701;-55
2023/04/15 08:10:24;;;;;;;0.83;0.83;;;12.70;1.00;;;;;;5049898;28;20231;-55
2023/04/15 08:12:53;;;;;;;1.30;1.17;;;12.80;1.00;;;;;;5050354;28;20184;-56
2023/04/15 08:15:19;;;;;;;1.00;0.90;;;13.10;1.00;;;;;;5049434;28;20181;-56
2023/04/15 08:17:45;;;;;;;1.30;1.10;;;13.20;1.00;;;;;;5050962;28;20438;-55
2023/04/15 08:20:12;;;;;;;1.00;0.90;;;13.00;1.00;;;;;;5049297;28;20450;-55
2023/04/15 08:22:38;;;;;;;1.10;0.97;;;12.90;1.00;;;;;;5050338;28;20447;-56
2023/04/15 08:25:04;;;;;;;1.13;0.90;;;12.90;1.00;;;;;;5051284;28;20435;-55
2023/04/15 08:27:30;;;;;;;1.50;0.87;;;13.00;1.00;;;;;;5050836;28;20443;-55
2023/04/15 08:29:55;;;;;;;1.13;1.00;;;13.20;1.00;;;;;;5051163;28;20442;-57
2023/04/15 08:32:21;;;;;;;1.10;0.90;;;13.40;1.00;;;;;;5057079;28;20184;-56
2023/04/15 08:34:48;;;;;;;3.23;1.00;;;13.50;1.00;;;;;;5049914;28;20284;-56
2023/04/15 08:37:14;;;;;;;0.97;0.93;;;13.70;1.00;;;;;;5045672;28;20189;-58
2023/04/15 08:39:39;;;;;;;0.80;0.80;;;13.70;1.00;;;;;;5048149;28;20493;-57
2023/04/15 08:42:10;;;;;;;1.40;1.30;;;13.60;1.00;;;;;;5048161;28;20176;-57
2023/04/15 08:44:37;;;;;;;2.70;1.00;;;13.60;1.00;;;;;;5043113;28;20185;-56
2023/04/15 08:47:06;;;;;;;1.10;1.00;;;13.60;1.00;;;;;;5048032;28;20459;-57
2023/04/15 08:49:33;;;;;;;1.80;1.30;;;13.60;1.00;;;;;;5046863;28;20998;-56
2023/04/15 08:51:59;;;;;;;1.47;1.10;;;13.50;1.00;;;;;;5043608;28;20465;-58
2023/04/15 08:54:26;;;;;;;1.40;1.30;;;13.50;1.00;;;;;;5043971;28;20909;-57
2023/04/15 08:56:52;;;;;;;1.30;1.20;;;13.30;1.00;;;;;;5045208;28;20684;-57
2023/04/15 08:59:20;;;;;;;1.70;1.60;;;13.30;1.00;;;;;;5047884;28;20425;-57
2023/04/15 09:01:47;;;;;;;2.17;1.97;;;13.20;1.00;;;;;;5044292;28;20458;-57
2023/04/15 09:04:13;;;;;;;2.30;2.10;;;13.10;1.00;;;;;;5048024;28;20462;-57
2023/04/15 09:06:40;;;;;;;2.83;2.47;;;13.00;1.00;;;;;;5048396;28;20504;-57
2023/04/15 09:09:05;;;;;;;2.60;2.30;;;12.80;1.00;;;;;;5059324;28;20477;-57
2023/04/15 09:11:31;;;;;;;3.00;2.77;;;12.60;1.00;;;;;;5058249;28;20492;-57
2023/04/15 09:13:57;;;;;;;2.93;2.73;;;12.60;1.00;;;;;;5040066;28;20185;-57
2023/04/15 09:16:23;;;;;;;3.60;3.00;;;12.60;1.00;;;;;;5048568;28;20196;-56
2023/04/15 09:18:48;;;;;;;2.93;2.73;;;12.60;1.00;;;;;;5050100;28;20650;-56
2023/04/15 09:21:16;;;;;;;3.50;3.23;;;12.50;1.00;;;;;;5046902;28;20580;-58
2023/04/15 09:24:02;;;;;;;4.20;3.23;;;12.50;1.00;;;;;;5047751;28;20573;-56
2023/04/15 09:26:35;;;;;;;3.30;3.10;;;12.40;1.00;;;;;;5045231;28;20978;-56
2023/04/15 09:29:08;;;;;;;3.20;2.90;;;12.30;1.00;;;;;;5048555;28;21121;-57
2023/04/15 09:31:35;;;;;;;4.77;3.80;;;12.20;1.00;;;;;;5047892;28;20435;-54
2023/04/15 09:34:01;;;;;;;3.20;3.00;;;12.20;1.00;;;;;;5049813;28;20447;-56
2023/04/15 09:36:30;;;;;;;4.37;3.93;;;12.30;1.00;;;;;;5046892;28;20945;-56
2023/04/15 09:38:56;;;;;;;3.40;3.10;;;12.20;1.00;;;;;;5044336;28;20520;-57
2023/04/15 09:41:23;;;;;;;4.00;3.70;;;12.20;1.00;;;;;;5053971;28;20449;-55
2023/04/15 09:43:49;;;;;;;3.80;3.50;;;12.30;1.00;;;;;;5048376;28;21281;-56
2023/04/15 09:46:15;;;;;;;3.83;3.53;;;12.20;1.00;;;;;;5049189;28;20496;-57
2023/04/15 09:48:40;;;;;;;4.03;3.73;;;12.10;1.00;;;;;;5046247;28;20219;-58
2023/04/15 09:51:06;;;;;;;4.07;3.67;;;12.00;1.00;;;;;;5051976;28;20189;-57
2023/04/15 09:53:34;;;;;;;4.73;3.83;;;11.90;1.00;;;;;;5050486;28;20270;-57
2023/04/15 09:56:01;;;;;;;4.90;4.40;;;11.90;1.00;;;;;;5059564;28;20261;-58
2023/04/15 09:58:36;;;;;;;4.33;4.00;;;11.90;1.00;;;;;;5054630;28;20918;-57
2023/04/15 10:01:07;;;;;;;3.90;3.60;;;12.10;1.00;;;;;;5047958;28;20450;-57
2023/04/15 10:03:37;;;;;;;3.67;3.40;;;12.20;1.00;;;;;;5046929;28;20447;-57
2023/04/15 10:06:04;;;;;;;4.57;3.47;;;12.30;1.00;;;;;;5045296;28;21036;-56
2023/04/15 10:08:32;;;;;;;3.30;3.00;;;12.40;1.00;;;;;;5048941;28;20474;-57
2023/04/15 10:10:59;;;;;;;3.63;3.33;;;12.40;1.00;;;;;;5045460;28;20589;-57
2023/04/15 10:13:28;;;;;;;3.33;3.00;;;12.40;1.00;;;;;;5051219;28;20804;-58
2023/04/15 10:15:59;;;;;;;4.00;3.70;;;12.30;1.00;;;;;;5050141;28;20811;-59
2023/04/15 10:18:27;;;;;;;3.57;3.37;;;12.20;1.00;;;;;;5042959;28;20443;-57
2023/04/15 10:20:53;;;;;;;4.17;3.87;;;12.10;1.00;;;;;;5050175;28;20447;-57
2023/04/15 10:23:21;;;;;;;2.90;2.70;;;12.10;1.00;;;;;;5049460;28;20450;-64
2023/04/15 10:25:49;;;;;;;3.90;3.60;;;12.10;1.00;;;;;;5044546;28;20462;-56
2023/04/15 10:28:16;;;;;;;3.77;3.47;;;12.20;1.00;;;;;;5040826;28;20506;-57
2023/04/15 10:30:42;;;;;;;3.47;2.97;;;12.30;1.00;;;;;;5049772;28;20439;-57
2023/04/15 10:33:08;;;;;;;4.40;4.10;;;12.30;1.00;;;;;;5048508;28;20482;-55
2023/04/15 10:35:35;;;;;;;5.00;4.23;;;12.20;1.00;;;;;;5047155;28;20443;-57
2023/04/15 10:38:01;;;;;;;4.50;4.17;;;12.20;1.00;;;;;;5047497;28;20940;-57
2023/04/15 10:40:31;;;;;;;4.30;3.90;;;12.20;1.00;;;;;;5042115;28;20451;-55
2023/04/15 10:42:59;;;;;;;3.40;3.10;;;12.30;1.00;;;;;;5045022;28;20204;-56
2023/04/15 10:45:27;;;;;;;4.40;4.10;;;12.40;1.00;;;;;;5044890;28;20921;-55
2023/04/15 10:47:57;;;;;;;3.93;3.63;;;12.40;1.00;;;;;;5051463;28;20987;-56
2023/04/15 10:50:26;;;;;;;3.83;3.53;;;12.30;1.00;;;;;;5048515;28;20948;-54
2023/04/15 10:52:52;;;;;;;5.57;5.07;;;12.40;1.00;;;;;;5043414;28;20440;-54
2023/04/15 10:55:23;;;;;;;3.90;3.60;;;12.40;1.00;;;;;;5048183;28;20493;-55
2023/04/15 10:57:53;;;;;;;4.50;4.10;;;12.60;1.00;;;;;;5048487;28;20625;-58
2023/04/15 11:00:21;;;;;;;11.97;3.70;;;12.90;1.00;;;;;;5044897;28;20451;-57
2023/04/15 11:02:58;;;;;;;4.47;4.17;;;13.00;1.00;;;;;;5048081;28;20468;-56
2023/04/15 11:05:48;;;;;;;3.03;2.80;;;13.20;1.00;;;;;;5052758;28;20807;-58
2023/04/15 11:08:14;;;;;;;3.60;3.30;;;13.30;1.00;;;;;;5064910;28;20462;-57
2023/04/15 11:10:39;;;;;;;4.00;3.70;;;13.30;1.00;;;;;;5050272;28;20439;-56
2023/04/15 11:13:16;;;;;;;3.50;3.30;;;13.30;1.00;;;;;;5053804;28;21616;-57
2023/04/15 11:15:45;;;;;;;3.50;3.20;;;13.30;1.00;;;;;;5049114;28;20188;-57
2023/04/15 11:18:13;;;;;;;3.80;3.10;;;13.20;1.00;;;;;;5050243;28;20442;-56
2023/04/15 11:20:41;;;;;;;4.17;3.77;;;13.10;1.00;;;;;;5059203;28;21018;-57
2023/04/15 11:23:08;;;;;;;3.60;3.30;;;13.00;1.00;;;;;;5046200;28;20447;-56
2023/04/15 11:25:36;;;;;;;4.33;3.73;;;13.00;1.00;;;;;;5050925;28;20451;-58
2023/04/15 11:28:02;;;;;;;3.47;3.17;;;13.00;1.00;;;;;;5055310;28;20467;-56
2023/04/15 11:30:31;;;;;;;2.93;2.73;;;13.10;1.00;;;;;;5049591;28;21000;-57
2023/04/15 11:33:07;;;;;;;3.60;3.30;;;13.20;1.00;;;;;;5045198;28;20451;-58
2023/04/15 11:35:34;;;;;;;3.13;2.83;;;13.40;1.00;;;;;;5041935;28;20473;-57
2023/04/15 11:38:05;;;;;;;3.10;2.80;;;13.40;1.00;;;;;;5047954;28;20458;-58
2023/04/15 11:40:32;;;;;;;3.00;2.50;;;13.50;1.00;;;;;;5043615;28;20440;-57
2023/04/15 11:43:05;;;;;;;3.63;3.30;;;13.50;1.00;;;;;;5044730;28;20443;-57
2023/04/15 11:45:30;;;;;;;2.10;2.00;;;13.60;1.00;;;;;;5041721;28;21123;-56
2023/04/15 11:48:10;;;;;;;2.60;2.40;;;13.60;1.00;;;;;;5039368;28;20526;-55
2023/04/15 11:50:39;;;;;;;2.30;2.10;;;13.60;1.00;;;;;;5043126;28;20184;-56
2023/04/15 11:53:06;;;;;;;2.50;2.30;;;13.70;1.00;;;;;;5050877;28;20442;-56
2023/04/15 11:55:50;;;;;;;2.57;2.37;;;13.80;1.00;;;;;;5053094;28;20508;-55
2023/04/15 11:58:22;;;;;;;2.17;1.97;;;13.90;1.00;;;;;;5047863;28;20563;-56
2023/04/15 12:00:53;;;;;;;2.50;2.30;;;13.80;1.00;;;;;;5051423;28;22451;-58
2023/04/15 12:03:23;;;;;;;2.27;2.07;;;13.80;1.00;;;;;;5046220;28;20455;-58
2023/04/15 12:06:11;;;;;;;4.13;2.53;;;13.70;1.00;;;;;;5048444;28;20542;-57
2023/04/15 12:09:06;;;;;;;2.00;1.77;;;13.70;1.00;;;;;;5048697;28;20462;-57
2023/04/15 12:11:56;;;;;;;3.63;2.03;;;13.70;1.00;;;;;;5048891;28;20462;-56
2023/04/15 12:14:27;;;;;;;5.20;3.40;;;13.80;1.00;;;;;;5047497;28;20463;-56
2023/04/15 12:17:04;;;;;;;2.30;2.00;;;13.70;1.00;;;;;;5044824;28;20463;-56
2023/04/15 12:19:33;;;;;;;1.77;1.63;;;13.60;1.00;;;;;;5049186;28;20458;-57
2023/04/15 12:22:03;;;;;;;1.80;1.70;;;13.60;1.00;;;;;;5062157;28;20914;-56
2023/04/15 12:24:33;;;;;;;1.83;1.73;;;13.60;1.00;;;;;;5046402;28;20898;-56
2023/04/15 12:27:17;;;;;;;2.10;1.83;;;13.50;1.00;;;;;;5044673;28;20932;-56
2023/04/15 12:29:43;;;;;;;1.63;1.53;;;13.60;1.00;;;;;;5042903;28;20467;-56
2023/04/15 12:32:10;;;;;;;1.73;1.60;;;13.60;1.00;;;;;;5042877;28;20530;-58
2023/04/15 12:34:39;;;;;;;3.17;2.10;;;13.60;1.00;;;;;;5044971;28;20495;-57
2023/04/15 12:37:08;;;;;;;2.20;1.90;;;13.70;1.00;;;;;;5049631;28;20446;-58
2023/04/15 12:39:36;;;;;;;2.20;1.90;;;13.70;1.00;;;;;;5046995;28;20474;-56
2023/04/15 12:42:04;;;;;;;1.50;1.40;;;13.80;1.00;;;;;;5043825;28;21308;-57
2023/04/15 12:44:30;;;;;;;2.10;2.00;;;13.80;1.00;;;;;;5042446;28;20458;-58
2023/04/15 12:46:56;;;;;;;1.87;1.77;;;13.80;1.00;;;;;;5046217;28;20470;-57
2023/04/15 12:49:23;;;;;;;2.10;1.90;;;13.80;1.00;;;;;;5047086;28;20805;-58
2023/04/15 12:51:50;;;;;;;1.73;1.57;;;13.80;1.00;;;;;;5041662;28;20192;-58
2023/04/15 12:54:16;;;;;;;2.10;1.70;;;13.90;1.00;;;;;;5050563;28;20485;-57